Latest Coastal Weather Observations for Maroochydore

IDQ60701

Issued at 4:51 am EST Tuesday 30 May 2017 (issued every 10 minutes, with the page automatically refreshed every 10 minutes)

About coastal observations | Map of coastal stations | Coastal observations for QLD | Marine services | Other Formats
Station Details ID: 040861 Name: SUNSHINE COAST AIRPORT Lat: -26.60 Lon: 153.09 Height: 3.3 m
Data from the previous 72 hours. | See also: Recent months at Maroochydore
Date/Time
EST
Temp
°C
Wind Pressure Rain since
9am
mm
Weather Cloud Vis
km
Sea
Height
m
Swell
Dir  Spd
kts
Gust
kts
hPa Trend Height
m
Period
s
Dir
30/04:30am 15.6 SW 6 8 1020.6 - 0.0 - - 10 - - - -
30/04:00am 15.4 WSW 8 10 1021.0 - 0.0 - - 10 - - - -
30/03:30am 14.8 SW 4 5 1020.7 - 0.0 - - 10 - - - -
30/03:00am 15.5 S 4 5 1020.7 - 0.0 - - 10 - - - -
30/02:30am 15.4 SSW 7 9 1020.3 - 0.0 - - 10 - - - -
30/02:00am 15.3 SW 7 9 1020.5 - 0.0 - - 10 - - - -
30/01:30am 14.5 SW 4 6 1020.9 - 0.0 - - 10 - - - -
30/01:00am 14.3 SW 4 5 1020.6 - 0.0 - - 10 - - - -
30/12:30am 14.3 WSW 6 7 1020.6 - 0.0 - - 10 - - - -
30/12:00am 13.8 WSW 5 6 1020.3 - 0.0 - - 10 - - - -
 
Date/Time
EST
Temp
°C
Wind Pressure Rain since
9am
mm
Weather Cloud Vis
km
Sea
Height
m
Swell
Dir  Spd
kts
Gust
kts
hPa Trend Height
m
Period
s
Dir
29/11:30pm 14.4 SW 5 6 1020.5 - 0.0 - - 10 - - - -
29/11:00pm 14.6 W 3 5 1020.2 - 0.0 - - 10 - - - -
29/10:30pm 15.2 WSW 4 5 1020.5 - 0.0 - - 10 - - - -
29/10:00pm 15.5 WSW 6 7 1020.5 - 0.0 - - 10 - - - -
29/09:30pm 15.4 SW 4 5 1020.2 - 0.0 - - 10 - - - -
29/09:00pm 15.3 WSW 5 6 1020.0 - 0.0 - - 10 - - - -
29/08:30pm 14.8 W 4 5 1020.0 - 0.0 - - 10 - - - -
29/08:00pm 16.1 SW 3 4 1019.8 - 0.0 - - 10 - - - -
29/07:30pm 16.2 W 3 4 1019.5 - 0.0 - - 10 - - - -
29/07:00pm 16.8 WSW 4 5 1019.1 - 0.0 - - 10 - - - -
29/06:30pm 17.0 WSW 3 4 1019.0 - 0.0 - - 10 - - - -
29/06:00pm 17.8 NW 3 4 1018.7 - 0.0 - - 10 - - - -
29/05:30pm 18.8 N 3 4 1018.1 - 0.0 - - 10 - - - -
29/05:00pm 20.7 NNE 4 5 1017.6 - 0.0 - - 10 - - - -
29/04:30pm 22.5 ENE 5 6 1017.4 - 0.0 - - 10 - - - -
29/04:00pm 23.3 ENE 6 7 1017.2 - 0.0 - - 10 - - - -
29/03:30pm 23.9 ENE 6 7 1017.2 - 0.0 - - 10 - - - -
29/03:00pm 24.3 NE 7 9 1017.3 - 0.0 - - 10 - - - -
29/02:30pm 24.2 NE 8 10 1017.2 - 0.0 - - 10 - - - -
29/02:00pm 24.6 ENE 7 9 1017.3 - 0.0 - - 10 - - - -
29/01:30pm 24.4 ENE 8 10 1017.1 - 0.0 - - 10 - - - -
29/01:00pm 25.0 ENE 9 10 1017.2 - 0.0 - - 10 - - - -
29/12:30pm 25.2 ENE 8 11 1017.5 - 0.0 - - 10 - - - -
29/12:00pm 25.5 NE 6 9 1017.7 - 0.0 - Mostly clear 10 - - - -
29/11:30am 25.3 N 4 7 1018.0 - 0.0 - - 10 - - - -
29/11:00am 24.7 W 4 7 1018.2 - 0.0 - - 10 - - - -
29/10:30am 24.4 NNW 6 9 1018.6 - 0.0 - - 10 - - - -
29/10:00am 23.6 WNW 7 9 1018.9 - 0.0 - - 10 - - - -
29/09:30am 23.0 NW 6 9 1019.1 - 0.0 - Partly cloudy 10 - - - -
29/09:00am 21.9 WNW 8 10 1019.0 - 0.2 - - 10 - - - -
29/08:30am 20.3 WNW 4 6 1019.0 - 0.2 - - 10 - - - -
29/08:00am 18.7 WSW 4 6 1019.0 - 0.2 - - 10 - - - -
29/07:30am 17.4 WSW 4 5 1018.8 - 0.2 - - 10 - - - -
29/07:00am 15.9 NW 1 5 1018.5 - 0.2 - Partly cloudy 10 - - - -
29/06:30am 15.7 NNW 4 5 1018.2 - 0.2 - - 10 - - - -
29/06:00am 16.2 NNW 4 5 1018.0 - 0.2 - Partly cloudy 10 - - - -
29/05:30am 16.5 NW 5 6 1018.0 - 0.2 - Partly cloudy 10 - - - -
29/05:00am 16.7 NW 5 5 1017.9 - 0.2 - Cloudy 10 - - - -
29/04:30am 16.3 WNW 5 5 1017.9 - 0.2 - Cloudy 10 - - - -
29/04:00am 16.3 WSW 5 6 1017.8 - 0.2 - Partly cloudy 10 - - - -
29/03:30am 16.5 W 5 6 1017.9 - 0.2 - Partly cloudy 10 - - - -
29/03:00am 16.4 CALM 0 0 1017.8 - 0.2 - Cloudy 10 - - - -
29/02:30am 16.5 CALM 0 0 1017.7 - 0.2 - Partly cloudy 10 - - - -
29/02:00am 16.6 CALM 0 0 1017.7 - 0.2 - Partly cloudy 10 - - - -
29/01:30am 16.3 CALM 0 0 1017.9 - 0.2 - Cloudy 10 - - - -
29/01:00am 16.3 WNW 4 4 1018.0 - 0.2 - Cloudy 10 - - - -
29/12:30am 15.6 W 5 6 1018.0 - 0.2 - Cloudy 10 - - - -
29/12:00am 16.8 N 4 4 1017.9 - 0.2 - Mostly clear 10 - - - -
 
Date/Time
EST
Temp
°C
Wind Pressure Rain since
9am
mm
Weather Cloud Vis
km
Sea
Height
m
Swell
Dir  Spd
kts
Gust
kts
hPa Trend Height
m
Period
s
Dir
28/11:30pm 17.0 NW 6 7 1018.1 - 0.2 - - 10 - - - -
28/11:00pm 17.1 NW 5 6 1018.3 - 0.2 - - 10 - - - -
28/10:30pm 17.3 NW 7 9 1018.2 - 0.2 - - 10 - - - -
28/10:00pm 17.1 NW 6 7 1018.3 - 0.2 - - 10 - - - -
28/09:30pm 17.5 WNW 5 7 1018.4 - 0.2 - - 10 - - - -
28/09:00pm 17.9 WNW 5 6 1018.5 - 0.2 - - 10 - - - -
28/08:30pm 17.9 NW 4 6 1018.5 - 0.2 - - 10 - - - -
28/08:00pm 17.9 NW 4 5 1018.4 - 0.2 - - 10 - - - -
28/07:30pm 18.5 NW 6 8 1018.1 - 0.2 - - 10 - - - -
28/07:00pm 19.1 N 7 9 1017.6 - 0.2 - - 10 - - - -
28/06:30pm 19.2 N 6 7 1017.4 - 0.2 - - 10 - - - -
28/06:00pm 19.9 N 8 9 1016.8 - 0.2 - - 10 - - - -
28/05:30pm 20.4 N 9 12 1016.4 - 0.2 - - 10 - - - -
28/05:00pm 20.4 N 8 12 1016.2 - 0.2 - - 10 - - - -
28/04:30pm 21.5 N 9 13 1016.0 - 0.2 - - 10 - - - -
28/04:00pm 22.5 NNE 11 14 1015.9 - 0.2 - - 10 - - - -
28/03:30pm 23.1 NNE 12 15 1015.8 - 0.2 - - 10 - - - -
28/03:00pm 23.7 NNE 11 14 1015.9 - 0.2 - - 10 - - - -
28/02:30pm 23.9 NNE 11 14 1016.0 - 0.2 - - 10 - - - -
28/02:00pm 24.1 NNE 11 14 1016.2 - 0.2 - - 10 - - - -
28/01:30pm 24.8 NNE 10 13 1016.5 - 0.2 - Partly cloudy 10 - - - -
28/01:00pm 23.9 NE 10 12 1016.7 - 0.2 - Partly cloudy 10 - - - -
28/12:30pm 24.4 NNE 11 13 1017.0 - 0.2 - Partly cloudy 10 - - - -
28/12:00pm 23.0 NNE 11 13 1017.4 - 0.2 - Cloudy 10 - - - -
28/11:30am 24.7 NE 8 11 1017.7 - 0.2 - Partly cloudy 10 - - - -
28/11:00am 22.8 ENE 7 9 1018.1 - 0.2 - Partly cloudy 10 - - - -
28/10:30am 22.5 ENE 6 8 1018.6 - 0.2 - - 10 - - - -
28/10:00am 22.4 NE 5 7 1018.8 - 0.0 - - 10 - - - -
28/09:30am 21.6 WNW 4 5 1019.1 - 0.0 - - 10 - - - -
28/09:00am 19.6 CALM 0 0 1019.1 - 0.0 - - 10 - - - -
28/08:30am 17.5 WNW 3 4 1019.2 - 0.0 - - 10 - - - -
28/08:00am 16.2 W 4 5 1019.1 - 0.0 - - 10 - - - -
28/07:30am 14.7 W 3 5 1019.1 - 0.0 - - 10 - - - -
28/07:06am 13.5 NW 1 6 1018.9 - 0.0 - - 10 - - - -
28/07:00am 13.4 WNW 5 6 1018.8 - 0.0 - - 10 - - - -
28/06:30am 12.0 W 4 5 1018.8 - 0.0 - - 4 - - - -
28/06:26am 12.0 W 4 4 1018.8 - 0.0 - - 6 - - - -
28/06:17am 12.2 WSW 4 5 1018.7 - 0.0 - Partly cloudy 10 - - - -
28/06:00am 12.4 WSW 5 6 1018.7 - 0.0 - Mostly clear 0.8 - - - -
28/05:45am 12.3 W 5 6 1018.5 - 0.0 - - 6 - - - -
28/05:31am 12.6 W 6 7 1018.4 - 0.0 - Partly cloudy 10 - - - -
28/05:30am 12.6 W 6 7 1018.4 - 0.0 - Partly cloudy 10 - - - -
28/05:01am 12.4 WNW 4 6 1018.3 - 0.0 - - 6 - - - -
28/05:00am 12.4 WNW 4 5 1018.3 - 0.0 - - 7 - - - -
28/04:56am 12.2 W 3 5 1018.3 - 0.0 - - 10 - - - -
28/04:30am 12.0 W 3 5 1018.2 - 0.0 - Partly cloudy 0.4 - - - -
28/04:00am 12.4 W 4 4 1018.2 - 0.0 - - 1 - - - -
28/03:30am 12.9 W 4 5 1018.2 - 0.0 - Partly cloudy 0.7 - - - -
28/03:05am 12.7 W 4 5 1018.5 - 0.0 - - 6 - - - -
28/03:00am 12.7 W 5 6 1018.5 - 0.0 - - 9 - - - -
28/02:49am 12.7 W 5 6 1018.5 - 0.0 - - 10 - - - -
28/02:30am 12.9 W 4 5 1018.7 - 0.0 - Partly cloudy 0.5 - - - -
28/02:00am 13.3 WSW 3 4 1019.0 - 0.0 - Partly cloudy 4 - - - -
28/01:57am 13.4 WSW 3 4 1019.0 - 0.0 - Partly cloudy 6 - - - -
28/01:32am 13.3 WSW 5 5 1019.2 - 0.0 - - 8 - - - -
28/01:30am 13.3 WSW 5 5 1019.2 - 0.0 - - 9 - - - -
28/01:00am 13.3 W 3 4 1019.3 - 0.0 - - 1 - - - -
28/12:30am 13.3 W 4 5 1019.4 - 0.0 - Partly cloudy 0.7 - - - -
28/12:07am 13.5 W 4 4 1019.5 - 0.0 - - 6 - - - -
28/12:05am 13.5 W 4 4 1019.5 - 0.0 - - 7 - - - -
28/12:00am 13.2 W 3 5 1019.5 - 0.0 - - 10 - - - -
 
Date/Time
EST
Temp
°C
Wind Pressure Rain since
9am
mm
Weather Cloud Vis
km
Sea
Height
m
Swell
Dir  Spd
kts
Gust
kts
hPa Trend Height
m
Period
s
Dir
27/11:39pm 13.7 W 4 5 1019.7 - 0.0 - - 6 - - - -
27/11:30pm 13.8 W 4 5 1019.7 - 0.0 - - 10 - - - -
27/11:29pm 13.8 W 4 5 1019.8 - 0.0 - - 10 - - - -
27/11:00pm 14.0 W 4 5 1020.1 - 0.0 - - 1 - - - -
27/10:51pm 14.3 W 3 5 1020.1 - 0.0 - - 6 - - - -
27/10:32pm 14.4 WSW 4 6 1020.2 - 0.0 - - 10 - - - -
27/10:30pm 14.4 W 4 6 1020.2 - 0.0 - - 10 - - - -
27/10:09pm 14.3 W 3 4 1020.3 - 0.0 - - 6 - - - -
27/10:01pm 14.6 WSW 4 5 1020.3 - 0.0 - - 10 - - - -
27/10:00pm 14.6 WSW 4 5 1020.3 - 0.0 - - 10 - - - -
27/09:30pm 14.4 W 4 5 1020.3 - 0.0 - - 10 - - - -
27/09:13pm 14.8 W 3 4 1020.4 - 0.0 - - 6 - - - -
27/09:00pm 14.9 W 4 4 1020.5 - 0.0 - Mostly clear 10 - - - -
27/08:53pm 14.9 W 4 4 1020.5 - 0.0 - Partly cloudy 10 - - - -
27/08:38pm 15.2 W 2 3 1020.5 - 0.0 - Partly cloudy 6 - - - -
27/08:30pm 15.2 W 3 4 1020.5 - 0.0 - Partly cloudy 8 - - - -
27/08:00pm 15.1 W 4 4 1020.4 - 0.0 - Partly cloudy 10 - - - -
27/07:30pm 15.0 SW 3 3 1020.3 - 0.0 - Partly cloudy 10 - - - -
27/07:00pm 16.1 WSW 4 5 1020.1 - 0.0 - Partly cloudy 10 - - - -
27/06:30pm 15.5 CALM 0 0 1019.9 - 0.0 - - 10 - - - -
27/06:00pm 16.8 CALM 0 0 1019.4 - 0.0 - - 10 - - - -
27/05:30pm 18.0 E 3 4 1019.1 - 0.0 - - 10 - - - -
27/05:00pm 20.0 E 4 5 1018.9 - 0.0 - - 10 - - - -
27/04:30pm 21.1 E 3 5 1018.7 - 0.0 - - 10 - - - -
27/04:00pm 21.5 E 6 7 1018.7 - 0.0 - - 10 - - - -
27/03:30pm 22.2 ENE 7 9 1018.6 - 0.0 - - 10 - - - -
27/03:00pm 22.2 E 7 11 1018.5 - 0.0 - Mostly clear 10 - - - -
27/02:30pm 22.2 E 7 9 1018.6 - 0.0 - - 10 - - - -
27/02:00pm 22.3 E 8 11 1018.6 - 0.0 - - 10 - - - -
27/01:30pm 22.4 SE 9 12 1018.8 - 0.0 - - 10 - - - -
27/01:00pm 22.5 SE 9 11 1019.0 - 0.0 - - 10 - - - -
27/12:30pm 23.1 ESE 9 11 1019.5 - 0.0 - - 10 - - - -
27/12:00pm 22.5 SE 12 14 1019.9 - 0.0 - - 10 - - - -
27/11:30am 22.3 ESE 10 13 1020.4 - 0.0 - - 10 - - - -
27/11:00am 22.8 SE 8 12 1020.8 - 0.0 - Partly cloudy 10 - - - -
27/10:30am 22.3 S 8 11 1021.1 - 0.0 - Partly cloudy 10 - - - -
27/10:00am 21.7 S 8 12 1021.4 - 0.0 - - 10 - - - -
27/09:30am 21.3 SSW 9 12 1021.6 - 0.0 - Partly cloudy 10 - - - -
27/09:00am 20.0 SSW 8 11 1021.4 - 0.0 - Mostly clear 10 - - - -
27/08:30am 18.6 SSW 8 11 1021.6 - 0.0 - Partly cloudy 10 - - - -
27/08:00am 17.1 S 9 12 1021.6 - 0.0 - - 10 - - - -
27/07:30am 13.3 SW 4 5 1021.3 - 0.0 - - 10 - - - -
27/07:00am 12.2 WSW 6 7 1021.1 - 0.0 - - 10 - - - -
27/06:30am 11.8 WSW 5 6 1020.9 - 0.0 - - 10 - - - -
27/06:00am 11.6 S 4 6 1020.5 - 0.0 - - 10 - - - -
27/05:30am 11.0 WSW 2 4 1020.2 - 0.0 - - 10 - - - -
27/05:00am 11.6 SW 3 4 1019.6 - 0.0 - - 10 - - - -
27/04:52am 11.8 SW 3 4 1019.7 - 0.0 - - 10 - - - -

Other Formats:

Comma delimited format used in spreadsheet applications
http://www.bom.gov.au/fwo/IDQ60701/IDQ60701.94569.axf

JavaScript Object Notation format (JSON) in row-major order
http://www.bom.gov.au/fwo/IDQ60701/IDQ60701.94569.json